Terminal Aerodrome Forecast
Issued by NWS

Home | Current Version | Previous Version | Text Only | Print | Product List | Glossary On
Versions: 1 2 3 4 5 6 7 8 9 10 11 12 13 14 15 16 17 18 19 20 21 22 23 24 25
000
FTUS42 KGSP 030531
TAFHKY
TAF
KHKY 030531Z 0306/0406 00000KT P6SM SCT250
     FM031500 22004KT P6SM SCT045
     FM031800 24004KT P6SM SCT060
     FM040000 00000KT P6SM SCT070=

USA.gov is the U.S. government's official web portal to all federal, state and local government web resources and services.